Time;durP1;ratioP1;P1;durP2;ratioP2;P2;SDS_P1;SDS_P2;PMS_P1;PMS_P2;Temp;Humidity;BMP_temperature;BMP_pressure;BME280_temperature;BME280_humidity;BME280_pressure;Samples;Min_cycle;Max_cycle;Signal;HPM_P1;HPM_P2
2021/12/20 00:00:51;;;;;;;27.52;3.88;;;6.30;99.90;;;;;;5008800;28;20096;-71
2021/12/20 00:03:17;;;;;;;24.13;5.07;;;6.20;99.90;;;;;;5005892;28;20062;-71
2021/12/20 00:05:42;;;;;;;28.40;4.68;;;6.20;99.90;;;;;;5016970;28;20084;-72
2021/12/20 00:08:09;;;;;;;23.65;4.50;;;6.20;99.90;;;;;;5022122;28;20509;-72
2021/12/20 00:10:34;;;;;;;24.73;4.50;;;6.20;99.90;;;;;;5011238;28;20049;-70
2021/12/20 00:13:00;;;;;;;20.60;4.60;;;6.20;99.90;;;;;;5015028;28;20624;-70
2021/12/20 00:15:26;;;;;;;23.48;4.65;;;6.20;99.90;;;;;;5014167;28;20160;-71
2021/12/20 00:17:52;;;;;;;25.83;4.15;;;6.20;99.90;;;;;;5010250;28;20485;-71
2021/12/20 00:20:18;;;;;;;27.33;5.07;;;6.20;99.90;;;;;;5007993;28;20509;-69
2021/12/20 00:22:44;;;;;;;22.40;4.07;;;6.20;99.90;;;;;;5001317;28;20056;-70
2021/12/20 00:25:10;;;;;;;19.00;4.03;;;6.10;99.90;;;;;;5000281;28;20045;-71
2021/12/20 00:27:36;;;;;;;22.17;4.30;;;6.10;99.90;;;;;;5012455;28;20500;-73
2021/12/20 00:30:04;;;;;;;23.27;4.75;;;6.10;99.90;;;;;;4992258;28;20057;-70
2021/12/20 00:32:31;;;;;;;25.80;5.55;;;6.10;99.90;;;;;;5013250;28;20107;-70
2021/12/20 00:34:57;;;;;;;23.48;4.78;;;6.10;99.90;;;;;;5013962;28;20383;-71
2021/12/20 00:40:20;;;;;;;28.88;4.40;;;6.10;99.90;;;;;;5046381;28;20048;-71
2021/12/20 00:42:53;;;;;;;23.10;4.00;;;6.10;99.90;;;;;;5016776;28;20052;-70
2021/12/20 00:45:20;;;;;;;20.42;3.72;;;6.10;99.90;;;;;;5033930;28;20049;-69
2021/12/20 00:47:46;;;;;;;25.70;3.90;;;6.00;99.90;;;;;;5050644;28;20060;-71
2021/12/20 00:50:14;;;;;;;24.70;4.35;;;6.00;99.90;;;;;;5034634;28;20049;-73
2021/12/20 00:52:41;;;;;;;17.38;3.85;;;6.00;99.90;;;;;;5051521;28;20056;-70
2021/12/20 00:55:08;;;;;;;24.85;3.83;;;6.00;99.90;;;;;;5032629;28;20510;-70
2021/12/20 00:57:34;;;;;;;14.90;3.90;;;6.00;99.90;;;;;;5050960;28;20056;-70
2021/12/20 00:59:59;;;;;;;15.80;3.63;;;6.00;99.90;;;;;;5035081;28;20053;-70
2021/12/20 01:02:25;;;;;;;17.40;4.30;;;6.00;99.90;;;;;;5030837;28;20072;-70
2021/12/20 01:04:51;;;;;;;21.80;3.72;;;6.00;99.90;;;;;;5032477;28;20054;-70
2021/12/20 01:07:16;;;;;;;22.48;4.05;;;6.10;99.90;;;;;;5038537;28;20041;-70
2021/12/20 01:09:42;;;;;;;24.17;4.07;;;6.00;99.90;;;;;;5015532;28;20128;-71
2021/12/20 01:12:15;;;;;;;32.05;4.10;;;6.00;99.90;;;;;;5030337;28;20056;-69
2021/12/20 01:14:40;;;;;;;24.92;3.80;;;6.00;99.90;;;;;;5033006;28;20049;-70
2021/12/20 01:17:06;;;;;;;18.42;3.63;;;6.00;99.90;;;;;;5032758;28;20401;-71
2021/12/20 01:19:33;;;;;;;21.73;3.42;;;6.00;99.90;;;;;;5051289;28;20056;-71
2021/12/20 01:21:59;;;;;;;17.48;3.78;;;6.00;99.90;;;;;;5034163;28;20485;-70
2021/12/20 01:24:25;;;;;;;26.83;4.68;;;6.00;99.90;;;;;;5031586;28;20067;-71
2021/12/20 01:26:50;;;;;;;25.00;4.47;;;5.90;99.90;;;;;;5033878;28;20057;-70
2021/12/20 01:29:16;;;;;;;24.42;3.78;;;5.90;99.90;;;;;;5032529;28;20053;-72
2021/12/20 01:31:44;;;;;;;23.15;4.53;;;5.90;99.90;;;;;;5033261;28;20116;-69
2021/12/20 01:34:10;;;;;;;28.83;4.45;;;6.10;99.90;;;;;;5033558;28;20045;-70
2021/12/20 01:36:35;;;;;;;16.65;4.28;;;5.90;99.90;;;;;;5033779;28;20045;-71
2021/12/20 01:39:01;;;;;;;24.20;3.75;;;5.90;99.90;;;;;;5028433;28;20436;-71
2021/12/20 01:41:27;;;;;;;19.10;3.70;;;5.90;99.90;;;;;;5028033;28;20064;-70
2021/12/20 01:43:54;;;;;;;21.45;4.63;;;5.80;99.90;;;;;;5019700;28;20053;-70
2021/12/20 01:46:20;;;;;;;26.27;4.25;;;5.90;99.90;;;;;;5014742;28;20049;-69
2021/12/20 01:48:46;;;;;;;25.00;5.18;;;5.80;99.90;;;;;;5044433;28;20052;-70
2021/12/20 01:53:58;;;;;;;20.88;4.03;;;5.80;99.90;;;;;;5055446;28;20049;-71
2021/12/20 01:56:24;;;;;;;23.52;3.88;;;5.80;99.90;;;;;;5036894;28;20489;-73
2021/12/20 01:58:50;;;;;;;17.45;3.65;;;5.80;99.90;;;;;;5034037;28;20473;-70
2021/12/20 02:03:45;;;;;;;24.98;4.25;;;5.80;99.90;;;;;;5046634;28;20057;-70
2021/12/20 02:06:28;;;;;;;20.23;3.42;;;5.70;99.90;;;;;;5034224;28;20051;-70
2021/12/20 02:08:56;;;;;;;14.48;3.45;;;5.70;99.90;;;;;;5026455;28;20087;-71
2021/12/20 02:11:22;;;;;;;19.27;3.47;;;5.70;99.90;;;;;;5027039;28;20053;-72
2021/12/20 02:13:49;;;;;;;24.85;3.85;;;5.70;99.90;;;;;;5031267;28;20048;-71
2021/12/20 02:16:15;;;;;;;14.55;3.33;;;5.70;99.90;;;;;;5039164;28;20095;-69
2021/12/20 02:18:41;;;;;;;21.77;3.22;;;5.70;99.90;;;;;;5036222;28;20562;-71
2021/12/20 02:21:06;;;;;;;24.15;4.05;;;5.80;99.90;;;;;;5035174;28;20160;-69
2021/12/20 02:23:33;;;;;;;24.95;3.63;;;5.70;99.90;;;;;;5029492;28;20072;-70
2021/12/20 02:26:02;;;;;;;20.38;3.13;;;5.70;99.90;;;;;;5027816;28;20408;-71
2021/12/20 02:28:31;;;;;;;21.73;4.00;;;5.70;99.90;;;;;;5027801;28;20056;-70
2021/12/20 02:39:13;;;;;;;19.27;3.33;;;5.70;99.90;;;;;;4974894;28;20058;-71
2021/12/20 02:41:39;;;;;;;11.75;3.03;;;5.70;99.90;;;;;;5014128;28;20058;-69
2021/12/20 02:44:06;;;;;;;14.68;3.15;;;5.70;99.90;;;;;;5014376;28;20049;-70
2021/12/20 02:49:05;;;;;;;22.10;3.83;;;5.60;99.90;;;;;;5013992;28;20378;-70
2021/12/20 02:51:31;;;;;;;20.02;3.03;;;5.60;99.90;;;;;;5017072;28;20077;-73
2021/12/20 02:53:59;;;;;;;13.23;2.60;;;5.60;99.90;;;;;;5014539;28;20065;-70
2021/12/20 02:56:24;;;;;;;17.80;2.88;;;5.60;99.90;;;;;;5016733;28;20413;-72
2021/12/20 02:58:51;;;;;;;19.65;2.97;;;5.60;99.90;;;;;;5032269;28;20049;-70
2021/12/20 03:01:16;;;;;;;20.25;2.90;;;5.50;99.90;;;;;;5014354;28;20129;-70
2021/12/20 03:03:42;;;;;;;16.25;3.65;;;5.50;99.90;;;;;;5015798;28;20195;-72
2021/12/20 03:06:23;;;;;;;15.15;3.20;;;5.50;99.90;;;;;;5017322;28;20045;-70
2021/12/20 03:08:51;;;;;;;15.00;3.65;;;5.50;99.90;;;;;;5033380;28;20053;-71
2021/12/20 03:11:18;;;;;;;14.52;2.40;;;5.50;99.90;;;;;;5023826;28;20046;-71
2021/12/20 03:13:47;;;;;;;14.32;2.90;;;5.50;99.90;;;;;;5029503;28;20054;-71
2021/12/20 03:16:12;;;;;;;16.88;3.50;;;5.40;99.90;;;;;;5028293;28;20397;-69
2021/12/20 03:18:38;;;;;;;17.65;4.15;;;5.40;99.90;;;;;;4992786;28;20056;-70
2021/12/20 03:21:03;;;;;;;11.73;2.53;;;5.30;99.90;;;;;;5000026;28;20064;-70
2021/12/20 03:23:29;;;;;;;17.67;2.72;;;5.20;99.90;;;;;;5016271;28;20454;-71
2021/12/20 03:25:55;;;;;;;15.48;3.20;;;5.30;99.90;;;;;;5015563;28;20053;-71
2021/12/20 03:28:21;;;;;;;13.27;2.83;;;5.20;99.90;;;;;;5016178;28;20095;-71
2021/12/20 03:30:47;;;;;;;15.10;2.58;;;5.10;99.90;;;;;;5014797;28;20077;-70
2021/12/20 03:33:12;;;;;;;14.23;2.45;;;5.10;99.90;;;;;;5014002;28;20072;-71
2021/12/20 03:35:38;;;;;;;17.02;2.78;;;5.00;99.90;;;;;;5015381;28;20541;-71
2021/12/20 03:38:04;;;;;;;17.55;2.85;;;5.00;99.90;;;;;;5035993;28;20065;-69
2021/12/20 03:40:30;;;;;;;15.45;2.90;;;4.90;99.90;;;;;;5033248;28;20049;-69
2021/12/20 03:42:56;;;;;;;14.25;2.33;;;4.80;99.90;;;;;;5034706;28;20438;-70
2021/12/20 03:45:22;;;;;;;12.52;2.40;;;4.80;99.90;;;;;;5019540;28;20045;-70
2021/12/20 03:47:48;;;;;;;13.50;3.13;;;4.70;99.90;;;;;;5031991;28;20112;-71
2021/12/20 03:50:14;;;;;;;13.43;2.72;;;4.60;99.90;;;;;;5048002;28;20063;-71
2021/12/20 03:52:40;;;;;;;15.15;2.60;;;4.50;99.90;;;;;;5032355;28;20056;-70
2021/12/20 03:55:08;;;;;;;17.13;3.60;;;4.50;99.90;;;;;;5034259;28;20056;-69
2021/12/20 03:57:34;;;;;;;11.35;2.40;;;4.40;99.90;;;;;;5034228;28;20554;-70
2021/12/20 03:59:59;;;;;;;15.15;2.65;;;4.40;99.90;;;;;;5032703;28;20128;-69
2021/12/20 04:02:26;;;;;;;12.82;2.58;;;4.40;99.90;;;;;;5034672;28;20067;-70
2021/12/20 04:04:52;;;;;;;19.58;3.08;;;4.30;99.90;;;;;;5034442;28;20062;-70
2021/12/20 04:07:18;;;;;;;15.57;4.07;;;4.30;99.90;;;;;;5035174;28;20057;-70
2021/12/20 04:09:43;;;;;;;14.35;2.72;;;4.30;99.90;;;;;;5033612;28;20120;-70
2021/12/20 04:12:10;;;;;;;17.27;2.88;;;4.20;99.90;;;;;;5034480;28;20088;-70
2021/12/20 04:14:36;;;;;;;9.60;2.38;;;4.20;99.90;;;;;;5033039;28;20523;-70
2021/12/20 04:17:02;;;;;;;10.23;3.13;;;4.20;99.90;;;;;;5034742;28;20091;-70
2021/12/20 04:19:28;;;;;;;15.15;2.78;;;4.10;99.90;;;;;;5033796;28;20102;-69
2021/12/20 04:21:53;;;;;;;11.32;2.45;;;4.10;99.90;;;;;;5035023;28;20057;-70
2021/12/20 04:24:19;;;;;;;15.48;2.85;;;4.10;99.90;;;;;;5024158;28;20053;-70
2021/12/20 04:26:45;;;;;;;13.15;2.45;;;4.10;99.90;;;;;;5033174;28;20041;-68
2021/12/20 04:29:10;;;;;;;10.70;2.47;;;4.10;99.90;;;;;;5027240;28;20056;-70
2021/12/20 04:31:36;;;;;;;10.60;2.65;;;4.10;99.90;;;;;;5040841;28;20055;-71
2021/12/20 04:34:02;;;;;;;15.65;2.78;;;4.00;99.90;;;;;;5023862;28;20570;-68
2021/12/20 04:36:29;;;;;;;14.32;2.78;;;4.00;99.90;;;;;;5025088;28;20524;-68
2021/12/20 04:38:55;;;;;;;15.85;2.45;;;4.10;99.90;;;;;;5024175;28;20417;-69
2021/12/20 04:41:21;;;;;;;12.70;2.42;;;4.00;99.90;;;;;;5039394;28;20045;-69
2021/12/20 04:43:46;;;;;;;10.55;2.50;;;4.00;99.90;;;;;;5039074;28;22067;-68
2021/12/20 04:46:12;;;;;;;10.95;2.70;;;4.00;99.90;;;;;;5024825;28;20052;-69
2021/12/20 04:48:38;;;;;;;12.32;2.65;;;3.90;99.90;;;;;;5031143;28;20057;-69
2021/12/20 04:51:03;;;;;;;10.55;2.50;;;3.90;99.90;;;;;;5037451;28;20133;-69
2021/12/20 04:53:29;;;;;;;15.23;3.55;;;3.80;99.90;;;;;;5042211;28;20136;-68
2021/12/20 04:55:54;;;;;;;13.50;3.03;;;3.80;99.90;;;;;;5015036;28;20083;-69
2021/12/20 04:58:20;;;;;;;17.35;2.88;;;3.80;99.90;;;;;;5038027;28;20049;-69
2021/12/20 05:00:46;;;;;;;17.35;2.83;;;3.80;99.90;;;;;;5032220;28;20085;-68
2021/12/20 05:03:12;;;;;;;15.52;2.95;;;3.80;99.90;;;;;;5033532;28;20041;-69
2021/12/20 05:05:37;;;;;;;15.02;2.97;;;3.70;99.90;;;;;;5034086;28;20365;-68
2021/12/20 05:08:04;;;;;;;10.90;2.33;;;3.70;99.90;;;;;;5029725;28;20103;-69
2021/12/20 05:10:33;;;;;;;14.82;2.70;;;3.70;99.90;;;;;;5034582;28;20053;-70
2021/12/20 05:13:07;;;;;;;11.93;2.20;;;3.60;99.90;;;;;;5033290;28;20057;-68
2021/12/20 05:15:33;;;;;;;18.63;2.85;;;3.60;99.90;;;;;;5050061;28;20604;-70
2021/12/20 05:18:00;;;;;;;9.18;3.22;;;3.50;99.90;;;;;;5044433;28;20396;-70
2021/12/20 05:20:27;;;;;;;12.07;3.95;;;3.50;99.90;;;;;;5028252;28;21297;-69
2021/12/20 05:22:54;;;;;;;15.25;3.45;;;3.40;99.90;;;;;;5034240;28;20045;-70
2021/12/20 05:25:20;;;;;;;12.90;3.05;;;3.40;99.90;;;;;;5034358;28;20459;-68
2021/12/20 05:27:46;;;;;;;13.40;3.63;;;3.40;99.90;;;;;;5037139;28;20156;-70
2021/12/20 05:30:14;;;;;;;22.00;4.18;;;3.30;99.90;;;;;;5033694;28;20121;-68
2021/12/20 05:32:40;;;;;;;13.18;3.60;;;3.20;99.90;;;;;;5037471;28;20051;-69
2021/12/20 05:35:07;;;;;;;13.57;3.25;;;3.20;99.90;;;;;;5036963;28;20053;-69
2021/12/20 05:37:33;;;;;;;10.38;3.00;;;3.10;99.90;;;;;;5037480;28;20461;-68
2021/12/20 05:39:59;;;;;;;13.20;3.10;;;3.10;99.90;;;;;;5036846;28;20128;-69
2021/12/20 05:42:25;;;;;;;11.13;3.10;;;3.00;99.90;;;;;;5036446;28;20083;-70
2021/12/20 05:44:51;;;;;;;17.17;3.70;;;3.00;99.90;;;;;;5024613;28;20351;-68
2021/12/20 05:47:22;;;;;;;10.25;3.08;;;2.90;99.90;;;;;;5048771;28;20064;-69
2021/12/20 05:49:48;;;;;;;20.73;3.50;;;2.90;99.90;;;;;;5053196;28;20140;-69
2021/12/20 05:52:14;;;;;;;13.40;2.65;;;2.90;99.90;;;;;;5034654;28;20124;-68
2021/12/20 05:54:39;;;;;;;10.80;2.83;;;2.80;99.90;;;;;;5053712;28;20132;-70
2021/12/20 05:57:05;;;;;;;9.82;2.92;;;2.70;99.90;;;;;;5037089;28;20499;-69
2021/12/20 05:59:30;;;;;;;19.55;3.83;;;2.70;99.90;;;;;;5034490;28;20418;-69
2021/12/20 06:01:56;;;;;;;14.27;2.92;;;2.70;99.90;;;;;;5029257;28;20045;-70
2021/12/20 06:04:22;;;;;;;14.82;2.33;;;2.60;99.90;;;;;;5036861;28;20049;-70
2021/12/20 06:06:47;;;;;;;10.85;3.20;;;2.60;99.90;;;;;;5023875;28;20196;-70
2021/12/20 06:09:13;;;;;;;11.02;3.55;;;2.50;99.90;;;;;;5026981;28;20045;-68
2021/12/20 06:11:39;;;;;;;10.05;2.45;;;2.40;99.90;;;;;;5027663;28;20058;-68
2021/12/20 06:14:04;;;;;;;11.52;2.85;;;2.40;99.90;;;;;;5026294;28;20045;-72
2021/12/20 06:16:30;;;;;;;16.45;3.38;;;2.40;99.90;;;;;;5041103;28;20061;-70
2021/12/20 06:18:56;;;;;;;10.15;2.95;;;2.30;99.90;;;;;;5025698;28;20060;-69
2021/12/20 06:21:23;;;;;;;8.63;2.58;;;2.30;99.90;;;;;;5039492;28;20045;-69
2021/12/20 06:23:49;;;;;;;7.97;2.90;;;2.30;99.90;;;;;;5029450;28;20106;-69
2021/12/20 06:26:15;;;;;;;9.95;2.58;;;2.20;99.90;;;;;;5009641;28;20792;-70
2021/12/20 06:28:41;;;;;;;11.90;3.30;;;2.20;99.90;;;;;;5020408;28;20049;-69
2021/12/20 06:31:07;;;;;;;13.75;3.53;;;2.20;99.90;;;;;;5035260;28;20056;-70
2021/12/20 06:33:32;;;;;;;14.98;4.22;;;2.10;99.90;;;;;;5035728;28;20053;-68
2021/12/20 06:35:58;;;;;;;18.30;4.43;;;2.10;99.90;;;;;;5034137;28;20508;-69
2021/12/20 06:38:23;;;;;;;17.60;7.93;;;2.00;99.90;;;;;;5027663;28;20541;-68
2021/12/20 06:40:51;;;;;;;16.73;5.50;;;2.00;99.90;;;;;;5019693;28;20045;-72
2021/12/20 06:43:17;;;;;;;16.38;4.03;;;2.00;99.90;;;;;;5030760;28;20049;-70
2021/12/20 06:45:43;;;;;;;17.08;3.42;;;2.00;99.90;;;;;;5034584;28;20103;-70
2021/12/20 06:48:08;;;;;;;15.52;2.75;;;2.00;99.90;;;;;;5022280;28;20053;-68
2021/12/20 06:50:34;;;;;;;7.95;2.60;;;1.90;99.90;;;;;;5037585;28;20059;-69
2021/12/20 06:53:00;;;;;;;13.48;2.75;;;1.90;99.90;;;;;;5036551;28;20049;-69
2021/12/20 06:55:26;;;;;;;10.82;3.08;;;1.90;99.90;;;;;;5036636;28;20049;-68
2021/12/20 06:57:51;;;;;;;15.88;3.35;;;1.90;99.90;;;;;;5036587;28;20085;-70
2021/12/20 07:00:19;;;;;;;12.77;3.03;;;1.80;99.90;;;;;;5036741;28;20057;-69
2021/12/20 07:02:47;;;;;;;12.50;2.70;;;1.80;99.90;;;;;;5036083;28;20049;-69
2021/12/20 07:05:12;;;;;;;8.38;3.03;;;1.70;99.90;;;;;;5035728;28;20049;-67
2021/12/20 07:07:39;;;;;;;12.80;3.10;;;1.70;99.90;;;;;;5036031;28;20067;-68
2021/12/20 07:10:05;;;;;;;8.38;2.85;;;1.60;99.90;;;;;;5037049;28;20045;-67
2021/12/20 07:12:34;;;;;;;13.70;3.63;;;1.60;99.90;;;;;;5036093;28;20048;-68
2021/12/20 07:15:00;;;;;;;10.63;2.55;;;1.50;99.90;;;;;;5019619;28;20099;-68
2021/12/20 07:17:26;;;;;;;13.90;2.05;;;1.60;99.90;;;;;;5053847;28;20053;-69
2021/12/20 07:19:52;;;;;;;11.70;2.22;;;1.50;99.90;;;;;;5036123;28;20441;-69
2021/12/20 07:22:17;;;;;;;9.95;2.10;;;1.50;99.90;;;;;;5033000;28;20556;-70
2021/12/20 07:24:43;;;;;;;12.23;2.20;;;1.50;99.90;;;;;;5036665;28;20049;-68
2021/12/20 07:27:10;;;;;;;10.82;2.42;;;1.50;99.90;;;;;;5032415;28;20061;-67
2021/12/20 07:29:37;;;;;;;12.70;2.50;;;1.50;99.90;;;;;;5035776;28;20053;-68
2021/12/20 07:32:03;;;;;;;9.45;2.03;;;1.40;99.90;;;;;;5035572;28;20080;-68
2021/12/20 07:34:28;;;;;;;13.98;2.45;;;1.40;99.90;;;;;;5035944;28;20049;-69
2021/12/20 07:36:54;;;;;;;10.77;2.40;;;1.40;99.90;;;;;;5036349;28;20064;-68
2021/12/20 07:39:20;;;;;;;9.48;2.03;;;1.30;99.90;;;;;;5052375;28;20551;-68
2021/12/20 07:41:46;;;;;;;9.73;2.00;;;1.30;99.90;;;;;;5035074;28;20080;-70
2021/12/20 07:44:12;;;;;;;12.00;2.20;;;1.30;99.90;;;;;;5035474;28;20635;-70
2021/12/20 07:46:38;;;;;;;8.65;2.28;;;1.30;99.90;;;;;;5035614;28;20507;-68
2021/12/20 07:49:04;;;;;;;10.43;2.50;;;1.20;99.90;;;;;;5034786;28;20048;-70
2021/12/20 07:51:32;;;;;;;8.27;2.03;;;1.20;99.90;;;;;;5035873;28;20080;-69
2021/12/20 07:53:58;;;;;;;8.98;2.30;;;1.20;99.90;;;;;;5035466;28;20095;-68
2021/12/20 07:56:23;;;;;;;13.88;2.40;;;1.20;99.90;;;;;;5031689;28;20060;-68
2021/12/20 07:58:49;;;;;;;11.48;2.20;;;1.10;99.90;;;;;;5051951;28;20055;-68
2021/12/20 08:01:16;;;;;;;13.43;2.58;;;1.10;99.90;;;;;;5033725;28;20535;-69
2021/12/20 08:03:42;;;;;;;7.25;2.35;;;1.10;99.90;;;;;;5035543;28;20052;-69
2021/12/20 08:06:08;;;;;;;10.77;2.67;;;1.00;99.90;;;;;;5035224;28;20056;-68
2021/12/20 08:08:35;;;;;;;11.25;3.40;;;1.10;99.90;;;;;;5035430;28;20107;-69
2021/12/20 08:11:01;;;;;;;11.50;2.70;;;1.00;99.90;;;;;;5018825;28;20049;-69
2021/12/20 08:13:27;;;;;;;11.85;3.20;;;1.00;99.90;;;;;;5035041;28;20327;-68
2021/12/20 08:15:52;;;;;;;13.70;4.13;;;1.10;99.90;;;;;;5052494;28;20457;-68
2021/12/20 08:18:20;;;;;;;15.13;5.13;;;1.10;99.90;;;;;;5019040;28;20049;-67
2021/12/20 08:20:46;;;;;;;12.90;4.30;;;1.00;99.90;;;;;;5035168;28;20060;-67
2021/12/20 08:23:12;;;;;;;14.10;4.30;;;1.60;99.90;;;;;;5035088;28;20064;-68
2021/12/20 08:25:39;;;;;;;10.63;4.82;;;1.00;99.90;;;;;;5018251;28;20052;-69
2021/12/20 08:28:06;;;;;;;15.43;5.18;;;1.00;99.90;;;;;;5034508;28;20102;-67
2021/12/20 08:30:32;;;;;;;15.02;5.68;;;1.00;99.90;;;;;;5017918;28;20044;-66
2021/12/20 08:32:57;;;;;;;14.95;5.47;;;1.00;99.90;;;;;;5034797;28;20128;-68
2021/12/20 08:35:24;;;;;;;10.77;5.35;;;1.10;99.90;;;;;;5035559;28;20052;-69
2021/12/20 08:37:50;;;;;;;13.40;6.90;;;1.00;99.90;;;;;;5034477;28;20051;-67
2021/12/20 08:40:16;;;;;;;13.27;6.50;;;1.40;99.90;;;;;;5035545;28;20099;-67
2021/12/20 08:42:43;;;;;;;14.10;7.03;;;0.60;99.90;;;;;;5034547;28;20049;-68
2021/12/20 08:45:11;;;;;;;15.45;6.75;;;1.10;99.90;;;;;;5026194;28;20116;-68
2021/12/20 08:47:37;;;;;;;13.95;7.15;;;1.10;99.90;;;;;;5014524;28;20128;-67
2021/12/20 08:50:05;;;;;;;12.18;5.40;;;1.00;99.90;;;;;;5015172;28;20131;-68
2021/12/20 08:52:31;;;;;;;13.13;4.95;;;1.20;99.90;;;;;;5015075;28;20164;-68
2021/12/20 08:54:57;;;;;;;14.73;4.68;;;1.10;99.90;;;;;;5033047;28;20084;-68
2021/12/20 08:57:22;;;;;;;13.73;4.63;;;1.20;99.90;;;;;;5015129;28;20061;-69
2021/12/20 08:59:52;;;;;;;619.47;67.10;;;1.20;99.90;;;;;;5024123;28;20451;-66
2021/12/20 09:02:17;;;;;;;11.48;4.13;;;1.30;99.90;;;;;;5038437;28;20549;-68
2021/12/20 09:04:43;;;;;;;17.35;5.47;;;1.30;99.90;;;;;;5038993;28;20137;-66
2021/12/20 09:07:14;;;;;;;12.73;5.00;;;1.30;99.90;;;;;;5037749;28;20064;-68
2021/12/20 09:09:43;;;;;;;15.95;5.70;;;1.30;99.90;;;;;;5038711;28;20119;-67
2021/12/20 09:12:17;;;;;;;21.33;7.63;;;1.40;99.90;;;;;;5038812;28;20045;-67
2021/12/20 09:14:42;;;;;;;16.23;7.30;;;1.30;99.90;;;;;;5034328;28;20099;-70
2021/12/20 09:17:08;;;;;;;15.55;8.50;;;1.40;99.90;;;;;;5048913;28;20045;-67
2021/12/20 09:19:36;;;;;;;18.02;7.95;;;1.40;99.90;;;;;;5056856;28;20065;-66
2021/12/20 09:22:04;;;;;;;15.35;7.68;;;1.30;99.90;;;;;;5055068;28;20063;-68
2021/12/20 09:24:30;;;;;;;20.67;8.77;;;1.50;99.90;;;;;;5034310;28;20378;-66
2021/12/20 09:26:55;;;;;;;17.77;7.93;;;1.50;99.90;;;;;;5018795;28;20193;-69
2021/12/20 09:29:23;;;;;;;16.17;8.70;;;1.60;99.90;;;;;;5021784;28;20480;-68
2021/12/20 09:31:49;;;;;;;16.27;7.93;;;1.60;99.90;;;;;;5053699;28;20102;-66
2021/12/20 09:34:18;;;;;;;14.18;7.78;;;1.60;99.90;;;;;;5020989;28;20045;-67
2021/12/20 09:36:43;;;;;;;19.25;8.05;;;1.80;99.90;;;;;;5037756;28;20055;-67
2021/12/20 09:39:11;;;;;;;20.92;7.10;;;1.60;99.90;;;;;;5056498;28;20385;-67
2021/12/20 09:44:08;;;;;;;13.60;5.97;;;1.80;99.90;;;;;;5036973;28;20041;-67
2021/12/20 09:46:34;;;;;;;20.55;6.53;;;1.90;99.90;;;;;;5055492;28;20128;-67
2021/12/20 09:49:00;;;;;;;22.10;7.22;;;1.90;99.90;;;;;;5038031;28;20553;-67
2021/12/20 09:51:26;;;;;;;55.97;26.60;;;2.00;99.90;;;;;;5055486;28;20059;-66
2021/12/20 09:53:55;;;;;;;22.45;8.10;;;2.10;99.90;;;;;;5037747;28;20057;-67
2021/12/20 09:56:23;;;;;;;25.20;10.13;;;2.10;99.90;;;;;;5037895;28;20049;-68
2021/12/20 09:58:52;;;;;;;22.77;8.07;;;2.20;99.90;;;;;;5027138;28;20140;-67
2021/12/20 10:01:20;;;;;;;22.80;7.15;;;2.20;99.90;;;;;;5028433;28;20059;-68
2021/12/20 10:03:46;;;;;;;21.73;7.22;;;2.30;99.90;;;;;;5037952;28;20053;-68
2021/12/20 10:06:12;;;;;;;25.10;4.72;;;2.40;99.90;;;;;;5037791;28;20057;-67
2021/12/20 10:08:48;;;;;;;20.23;4.97;;;2.40;99.90;;;;;;5023465;28;20050;-68
2021/12/20 10:11:26;;;;;;;19.55;4.60;;;2.50;99.90;;;;;;5017001;28;20053;-67
2021/12/20 10:14:16;;;;;;;18.90;4.10;;;2.60;99.90;;;;;;5021561;28;20485;-67
2021/12/20 10:16:45;;;;;;;18.88;4.60;;;2.60;99.90;;;;;;5044715;28;20061;-70
2021/12/20 10:19:29;;;;;;;20.90;4.40;;;2.80;99.90;;;;;;5037234;28;20136;-68
2021/12/20 10:21:57;;;;;;;20.80;4.30;;;2.80;99.90;;;;;;5036325;28;20053;-68
2021/12/20 10:24:34;;;;;;;15.02;3.70;;;2.90;99.90;;;;;;5035733;28;20099;-67
2021/12/20 10:27:00;;;;;;;14.82;4.15;;;2.90;99.90;;;;;;5017682;28;20106;-70
2021/12/20 10:29:26;;;;;;;15.60;4.30;;;3.00;99.90;;;;;;5046396;28;20041;-69
2021/12/20 10:31:53;;;;;;;20.58;4.50;;;3.10;99.90;;;;;;5036911;28;20068;-68
2021/12/20 10:34:30;;;;;;;20.67;4.18;;;3.20;99.90;;;;;;5035872;28;20516;-67
2021/12/20 10:36:57;;;;;;;17.77;4.22;;;3.30;99.90;;;;;;5037231;28;20049;-67
2021/12/20 10:39:41;;;;;;;14.55;3.72;;;3.30;99.90;;;;;;5037050;28;20061;-66
2021/12/20 10:42:19;;;;;;;19.75;4.22;;;3.50;99.90;;;;;;5037139;28;20055;-69
2021/12/20 10:45:15;;;;;;;17.13;5.45;;;3.10;99.90;;;;;;5054995;28;20049;-67
2021/12/20 10:47:42;;;;;;;20.08;3.95;;;3.50;99.90;;;;;;5033266;28;20511;-67
2021/12/20 10:50:30;;;;;;;12.35;3.22;;;3.60;99.90;;;;;;5033814;28;20069;-67
2021/12/20 10:53:20;;;;;;;10.82;3.20;;;3.70;99.90;;;;;;5034362;28;20133;-69
2021/12/20 10:55:49;;;;;;;13.93;3.15;;;3.80;99.90;;;;;;5033567;28;20053;-67
2021/12/20 10:58:32;;;;;;;16.83;3.30;;;4.00;99.90;;;;;;5033288;28;20117;-71
2021/12/20 11:01:46;;;;;;;14.57;3.65;;;4.00;99.90;;;;;;5033024;28;20057;-67
2021/12/20 11:04:24;;;;;;;7.63;3.13;;;4.00;99.90;;;;;;5034102;28;20505;-68
2021/12/20 11:09:38;;;;;;;10.95;3.67;;;4.10;99.90;;;;;;5029219;28;20373;-69
2021/12/20 11:12:10;;;;;;;11.23;3.05;;;4.10;99.90;;;;;;5035208;28;20776;-70
2021/12/20 11:14:57;;;;;;;7.70;2.57;;;4.20;99.90;;;;;;5051183;28;20056;-68
2021/12/20 11:17:23;;;;;;;15.50;3.35;;;4.30;99.90;;;;;;5035399;28;20303;-69
2021/12/20 11:19:50;;;;;;;6.68;2.72;;;4.30;99.90;;;;;;5019259;28;20060;-68
2021/12/20 11:22:20;;;;;;;8.40;2.47;;;4.50;99.90;;;;;;5050284;28;20288;-67
2021/12/20 11:24:49;;;;;;;10.07;2.40;;;4.40;99.90;;;;;;5016981;28;20129;-69
2021/12/20 11:27:32;;;;;;;8.60;2.65;;;4.50;99.90;;;;;;5034190;28;20045;-69
2021/12/20 11:30:03;;;;;;;6.80;2.60;;;4.60;99.90;;;;;;5028414;28;20053;-69
2021/12/20 11:32:30;;;;;;;7.82;2.50;;;4.70;99.90;;;;;;5035945;28;20061;-67
2021/12/20 11:34:55;;;;;;;11.45;3.17;;;4.80;99.90;;;;;;5033099;28;20072;-68
2021/12/20 11:37:24;;;;;;;8.27;2.50;;;4.80;99.90;;;;;;5053098;28;20057;-70
2021/12/20 11:39:50;;;;;;;5.75;2.65;;;5.00;99.90;;;;;;5052552;28;20059;-68
2021/12/20 11:42:17;;;;;;;7.10;2.20;;;4.80;99.90;;;;;;5035038;28;20057;-69
2021/12/20 11:44:45;;;;;;;8.18;2.10;;;5.00;99.90;;;;;;5052931;28;20124;-68
2021/12/20 11:47:31;;;;;;;6.57;1.70;;;5.10;99.90;;;;;;5035606;28;20457;-67
2021/12/20 11:50:01;;;;;;;7.05;2.22;;;5.10;99.90;;;;;;5033823;28;20044;-68
2021/12/20 11:52:35;;;;;;;7.32;2.15;;;5.20;99.90;;;;;;5023198;28;20087;-68
2021/12/20 11:55:22;;;;;;;9.70;2.60;;;5.20;99.90;;;;;;5015856;28;20056;-69
2021/12/20 11:58:01;;;;;;;3.67;1.95;;;5.30;99.90;;;;;;5033587;28;20108;-68
2021/12/20 12:00:34;;;;;;;8.43;2.00;;;5.30;99.90;;;;;;5016132;28;20049;-70
2021/12/20 12:03:07;;;;;;;9.48;1.90;;;5.40;99.90;;;;;;5032277;28;20128;-69
2021/12/20 12:05:37;;;;;;;6.20;1.75;;;5.40;99.90;;;;;;5027459;28;20485;-71
2021/12/20 12:08:42;;;;;;;5.20;1.70;;;5.40;99.90;;;;;;5053084;28;20119;-68
2021/12/20 12:11:07;;;;;;;7.47;1.70;;;5.50;99.90;;;;;;5053220;28;20053;-68
2021/12/20 12:13:46;;;;;;;6.47;1.88;;;5.50;99.90;;;;;;5018876;28;20102;-70
2021/12/20 12:16:27;;;;;;;5.07;1.90;;;5.60;99.90;;;;;;5035051;28;20327;-69
2021/12/20 12:18:54;;;;;;;4.35;1.63;;;5.50;99.90;;;;;;5034745;28;20052;-68
2021/12/20 12:21:32;;;;;;;6.97;2.78;;;5.70;99.90;;;;;;5052921;28;20071;-69
2021/12/20 12:24:14;;;;;;;9.30;2.00;;;5.80;99.90;;;;;;5035383;28;20466;-70
2021/12/20 12:26:47;;;;;;;7.55;1.70;;;6.00;99.90;;;;;;5034765;28;20060;-68
2021/12/20 12:29:23;;;;;;;6.22;1.88;;;6.10;99.90;;;;;;5035174;28;20056;-68
2021/12/20 12:31:49;;;;;;;2.88;1.27;;;6.20;99.90;;;;;;5034712;28;20064;-69
2021/12/20 12:34:16;;;;;;;4.93;1.45;;;6.20;99.90;;;;;;5052304;28;20057;-68
2021/12/20 12:36:42;;;;;;;6.40;1.65;;;6.30;99.90;;;;;;5035286;28;20069;-69
2021/12/20 12:39:10;;;;;;;6.40;2.70;;;6.30;99.90;;;;;;5052628;28;20056;-69
2021/12/20 12:41:48;;;;;;;2.75;1.33;;;6.30;99.90;;;;;;5035124;28;20517;-69
2021/12/20 12:44:17;;;;;;;4.50;1.20;;;6.20;99.90;;;;;;5035322;28;20053;-69
2021/12/20 12:47:00;;;;;;;5.05;1.15;;;6.20;99.90;;;;;;5017677;28;20048;-69
2021/12/20 12:49:27;;;;;;;6.07;1.70;;;6.20;99.90;;;;;;5034830;28;20505;-69
2021/12/20 12:52:05;;;;;;;3.85;1.52;;;6.20;99.90;;;;;;5018474;28;20136;-69
2021/12/20 12:54:33;;;;;;;5.28;1.55;;;6.20;99.90;;;;;;5035019;28;20131;-69
2021/12/20 12:57:11;;;;;;;5.88;1.27;;;6.20;99.90;;;;;;5052626;28;20064;-69
2021/12/20 12:59:47;;;;;;;8.88;1.65;;;6.20;99.90;;;;;;5017864;28;20107;-68
2021/12/20 13:02:19;;;;;;;6.57;1.92;;;6.20;99.90;;;;;;5046291;28;20054;-69
2021/12/20 13:04:51;;;;;;;3.63;1.65;;;6.20;99.90;;;;;;5014055;28;20049;-69
2021/12/20 13:07:29;;;;;;;4.78;1.60;;;6.20;99.90;;;;;;5014929;28;20107;-69
2021/12/20 13:09:59;;;;;;;3.72;1.20;;;6.20;99.90;;;;;;5015318;28;20175;-68
2021/12/20 13:15:27;;;;;;;4.63;1.40;;;6.10;99.90;;;;;;5015367;28;20050;-68
2021/12/20 13:17:59;;;;;;;3.55;1.23;;;6.10;99.90;;;;;;5014095;28;20064;-69
2021/12/20 13:20:35;;;;;;;4.20;1.30;;;6.00;99.90;;;;;;5032849;28;20132;-70